Time;durP1;ratioP1;P1;durP2;ratioP2;P2;SDS_P1;SDS_P2;PMS_P1;PMS_P2;Temp;Humidity;BMP_temperature;BMP_pressure;BME280_temperature;BME280_humidity;BME280_pressure;Samples;Min_cycle;Max_cycle;Signal;HPM_P1;HPM_P2
2023/07/14 00:02:50;;;;;;;2.30;1.17;;;;;;;20.19;89.87;99938.22;6231700;28;20049;-72
2023/07/14 00:05:51;;;;;;;1.15;0.98;;;;;;;20.08;91.35;99938.53;6215766;28;20049;-73
2023/07/14 00:08:52;;;;;;;1.63;0.90;;;;;;;20.07;92.02;99934.19;6222767;28;20058;-72
2023/07/14 00:11:53;;;;;;;1.37;1.17;;;;;;;19.95;92.04;99941.56;6222294;28;20046;-72
2023/07/14 00:14:56;;;;;;;1.97;1.20;;;;;;;20.12;92.46;99948.63;6224146;28;20048;-71
2023/07/14 00:18:21;;;;;;;1.15;1.02;;;;;;;20.18;91.81;99947.19;6223935;28;20085;-72
2023/07/14 00:21:24;;;;;;;1.00;0.90;;;;;;;20.00;92.48;99949.06;6222944;28;20073;-71
2023/07/14 00:24:26;;;;;;;1.10;0.90;;;;;;;20.15;92.94;99950.13;6223103;28;20825;-71
2023/07/14 00:27:27;;;;;;;0.80;0.80;;;;;;;19.97;94.17;99957.31;6223647;28;20093;-73
2023/07/14 00:30:27;;;;;;;0.73;0.73;;;;;;;19.94;94.17;99966.41;6222107;28;20198;-72
2023/07/14 00:33:29;;;;;;;1.17;1.00;;;;;;;20.16;93.39;99974.78;6223314;28;20486;-71
2023/07/14 00:36:30;;;;;;;1.75;1.25;;;;;;;20.24;92.52;99974.84;6223655;28;20085;-73
2023/07/14 00:39:30;;;;;;;1.30;1.10;;;;;;;20.25;93.25;99987.09;6225188;28;20045;-72
2023/07/14 00:42:32;;;;;;;1.10;0.90;;;;;;;20.05;92.17;99991.78;6216318;28;20092;-71
2023/07/14 00:45:34;;;;;;;1.08;0.98;;;;;;;20.27;93.25;99987.78;6220671;28;20509;-71
2023/07/14 00:48:35;;;;;;;1.05;0.88;;;;;;;20.27;91.96;99982.47;6222269;28;20050;-72
2023/07/14 00:51:37;;;;;;;1.80;1.23;;;;;;;20.32;90.57;99985.47;6216833;28;20100;-71
2023/07/14 00:54:46;;;;;;;1.15;0.90;;;;;;;20.35;91.91;99979.03;6221097;28;20049;-71
2023/07/14 00:57:55;;;;;;;3.35;1.05;;;;;;;20.35;90.87;99982.53;6223226;28;20050;-71
2023/07/14 01:01:04;;;;;;;3.63;1.23;;;;;;;20.42;90.05;99991.47;6222727;28;20129;-73
2023/07/14 01:04:08;;;;;;;2.22;1.20;;;;;;;20.28;92.57;99995.56;6223460;28;20078;-71
2023/07/14 01:07:11;;;;;;;2.83;1.10;;;;;;;20.31;92.93;99999.72;6218340;28;20060;-73
2023/07/14 01:10:16;;;;;;;1.17;0.93;;;;;;;20.18;91.96;99996.66;6224306;28;20417;-72
2023/07/14 01:13:18;;;;;;;1.05;0.90;;;;;;;20.17;91.47;99998.47;6221821;28;20179;-72
2023/07/14 01:16:19;;;;;;;1.63;1.10;;;;;;;20.09;92.14;99996.59;6224233;28;20100;-71
2023/07/14 01:19:40;;;;;;;1.80;1.00;;;;;;;20.21;92.14;99991.88;6239517;28;20050;-73
2023/07/14 01:23:22;;;;;;;1.17;0.90;;;;;;;20.03;91.87;100002.53;6221289;28;20319;-72
2023/07/14 01:27:05;;;;;;;1.27;0.95;;;;;;;20.13;90.80;99997.94;6220586;28;20057;-72
2023/07/14 01:30:07;;;;;;;1.02;0.90;;;;;;;20.23;90.64;100003.16;6206573;28;20196;-73
2023/07/14 01:33:17;;;;;;;1.98;1.10;;;;;;;20.24;89.50;100010.13;6219195;28;20061;-72
2023/07/14 01:36:19;;;;;;;0.85;0.85;;;;;;;20.31;89.01;100005.03;6222791;28;20085;-72
2023/07/14 01:39:22;;;;;;;1.65;1.10;;;;;;;20.17;89.14;100022.31;6222648;28;20046;-71
2023/07/14 01:42:24;;;;;;;0.80;0.80;;;;;;;20.16;89.04;100022.47;6222918;28;20136;-71
2023/07/14 01:45:30;;;;;;;1.13;0.98;;;;;;;20.20;90.12;100042.34;6219723;28;20049;-71
2023/07/14 01:48:41;;;;;;;1.00;0.70;;;;;;;20.17;89.90;100050.63;6222437;28;20050;-72
2023/07/14 01:51:45;;;;;;;1.25;1.00;;;;;;;20.17;90.66;100040.84;6219593;28;20089;-72
2023/07/14 01:54:57;;;;;;;2.45;0.90;;;;;;;20.26;90.10;100052.31;6222488;28;20096;-72
2023/07/14 01:58:02;;;;;;;1.20;0.93;;;;;;;20.13;90.45;100050.09;6222142;28;20104;-72
2023/07/14 02:01:06;;;;;;;1.55;0.88;;;;;;;20.35;89.86;100056.72;6221619;28;20058;-71
2023/07/14 02:04:17;;;;;;;1.55;0.88;;;;;;;20.19;90.36;100062.72;6218305;28;20060;-71
2023/07/14 02:07:18;;;;;;;2.33;1.93;;;;;;;20.17;90.55;100055.94;6219617;28;20124;-71
2023/07/14 02:10:20;;;;;;;2.83;0.82;;;;;;;20.29;92.34;100068.75;6214784;28;20050;-72
2023/07/14 02:13:23;;;;;;;1.23;1.10;;;;;;;20.23;90.95;100063.25;6219508;28;20052;-73
2023/07/14 02:16:25;;;;;;;0.93;0.90;;;;;;;20.25;91.34;100075.34;6221409;28;20049;-73
2023/07/14 02:19:27;;;;;;;0.63;0.63;;;;;;;20.11;92.44;100076.75;6221994;28;20056;-73
2023/07/14 02:22:29;;;;;;;1.00;0.90;;;;;;;20.16;92.77;100080.75;6221472;28;20557;-73
2023/07/14 02:25:32;;;;;;;;;;;;;;;20.15;94.14;100079.09;6221642;28;20139;-71
2023/07/14 02:28:32;;;;;;;2.83;0.98;;;;;;;20.01;94.26;100080.47;6220487;28;19928;-72
2023/07/14 02:31:40;;;;;;;0.87;0.87;;;;;;;19.99;94.51;100074.50;6214125;28;20081;-72
2023/07/14 02:34:47;;;;;;;1.10;1.00;;;;;;;20.03;96.88;100078.50;6220951;28;20045;-72
2023/07/14 02:38:12;;;;;;;2.45;1.30;;;;;;;19.99;96.00;100077.16;6221119;28;20434;-72
2023/07/14 02:41:21;;;;;;;1.65;1.05;;;;;;;19.95;96.50;100073.16;6221874;28;20136;-71
2023/07/14 02:44:33;;;;;;;1.35;1.10;;;;;;;19.80;97.20;100070.22;6219224;28;20045;-71
2023/07/14 02:47:39;;;;;;;1.60;1.25;;;;;;;19.83;96.38;100073.41;6217437;28;20465;-71
2023/07/14 02:50:40;;;;;;;2.00;1.20;;;;;;;19.69;97.12;100076.56;6221874;28;20085;-71
2023/07/14 02:53:41;;;;;;;1.80;1.10;;;;;;;19.69;97.13;100074.72;6219227;28;20054;-72
2023/07/14 02:56:42;;;;;;;2.38;1.67;;;;;;;19.77;94.94;100074.00;6219897;28;20046;-71
2023/07/14 02:59:43;;;;;;;1.58;1.33;;;;;;;19.78;95.11;100080.13;6220891;28;20068;-71
2023/07/14 03:02:44;;;;;;;2.20;1.37;;;;;;;19.57;94.86;100083.88;6219904;28;20050;-73
2023/07/14 03:05:44;;;;;;;1.93;1.43;;;;;;;19.67;93.97;100081.16;6220393;28;20152;-71
2023/07/14 03:08:46;;;;;;;6.97;1.23;;;;;;;19.69;93.48;100089.78;6218969;28;20433;-72
2023/07/14 03:11:49;;;;;;;3.92;1.40;;;;;;;19.63;93.74;100095.69;6215628;28;20042;-73
2023/07/14 03:14:50;;;;;;;2.15;1.70;;;;;;;19.58;93.96;100098.78;6217574;28;20137;-73
2023/07/14 03:17:51;;;;;;;3.22;1.80;;;;;;;19.67;93.68;100105.00;6221710;28;20085;-72
2023/07/14 03:20:56;;;;;;;3.33;1.90;;;;;;;19.56;93.66;100094.63;6220625;28;20125;-72
2023/07/14 03:23:58;;;;;;;1.77;1.50;;;;;;;19.62;93.79;100100.16;6219104;28;20429;-72
2023/07/14 03:26:59;;;;;;;;;;;;;;;19.71;93.41;100101.91;6222058;28;20046;-71
2023/07/14 03:30:00;;;;;;;1.73;1.60;;;;;;;19.71;93.37;100107.22;6218389;28;20356;-71
2023/07/14 03:33:00;;;;;;;1.55;1.35;;;;;;;19.84;92.06;100106.00;6218252;28;20049;-71
2023/07/14 03:36:09;;;;;;;2.10;1.70;;;;;;;19.73;93.27;100107.06;6219600;28;20053;-71
2023/07/14 03:39:25;;;;;;;2.42;1.85;;;;;;;19.75;93.90;100105.09;6221779;28;20057;-71
2023/07/14 03:42:25;;;;;;;1.45;1.30;;;;;;;19.81;93.65;100114.22;6220503;28;20090;-72
2023/07/14 03:45:26;;;;;;;3.87;1.77;;;;;;;19.89;94.57;100109.00;6219853;28;20049;-72
2023/07/14 03:48:27;;;;;;;1.90;1.73;;;;;;;19.84;93.81;100106.00;6221196;28;20081;-72
2023/07/14 03:51:30;;;;;;;2.23;1.53;;;;;;;19.86;92.97;100104.03;6215427;28;20517;-71
2023/07/14 03:54:31;;;;;;;2.53;1.50;;;;;;;19.68;94.18;100110.13;6214364;28;20517;-71
2023/07/14 03:57:32;;;;;;;2.67;1.40;;;;;;;19.84;94.85;100109.47;6219708;28;20046;-72
2023/07/14 04:00:35;;;;;;;1.98;1.73;;;;;;;19.92;94.87;100109.53;6219052;28;20061;-72
2023/07/14 04:03:36;;;;;;;1.73;1.58;;;;;;;19.81;93.84;100106.28;6218080;28;20141;-71
2023/07/14 04:06:36;;;;;;;2.43;1.50;;;;;;;20.08;93.26;100103.56;6224468;28;20050;-72
2023/07/14 04:09:37;;;;;;;1.40;1.30;;;;;;;20.02;93.33;100113.94;6222908;28;20470;-72
2023/07/14 04:12:39;;;;;;;5.37;1.20;;;;;;;19.96;93.50;100115.38;6223836;28;20054;-72
2023/07/14 04:15:39;;;;;;;4.72;1.52;;;;;;;20.00;93.04;100123.84;6221541;28;20056;-72
2023/07/14 04:18:42;;;;;;;2.85;1.88;;;;;;;20.09;92.91;100107.03;6225891;28;20049;-71
2023/07/14 04:21:43;;;;;;;2.90;1.67;;;;;;;20.22;91.75;100119.84;6223425;28;20046;-72
2023/07/14 04:24:49;;;;;;;2.30;1.57;;;;;;;20.03;93.32;100110.28;6223721;28;20046;-71
2023/07/14 04:27:52;;;;;;;4.68;2.08;;;;;;;20.20;92.92;100121.81;6222210;28;20091;-70
2023/07/14 04:30:58;;;;;;;1.70;1.38;;;;;;;19.90;94.59;100129.22;6201016;28;20057;-71
2023/07/14 04:34:01;;;;;;;3.88;1.88;;;;;;;19.99;94.13;100123.00;6221237;28;20080;-72
2023/07/14 04:37:03;;;;;;;2.00;1.45;;;;;;;19.98;93.46;100139.88;6223142;28;20632;-71
2023/07/14 04:40:06;;;;;;;2.70;1.77;;;;;;;20.09;94.08;100134.34;6222108;28;20065;-71
2023/07/14 04:43:07;;;;;;;1.77;1.60;;;;;;;20.11;92.74;100132.34;6222832;28;20104;-72
2023/07/14 04:46:09;;;;;;;3.27;1.80;;;;;;;20.09;93.56;100131.69;6221630;28;20489;-71
2023/07/14 04:49:11;;;;;;;3.53;1.67;;;;;;;20.20;91.66;100146.53;6220262;28;20050;-71
2023/07/14 04:52:12;;;;;;;2.85;1.65;;;;;;;20.16;93.33;100139.88;6222082;28;20042;-72
2023/07/14 04:55:13;;;;;;;2.30;1.80;;;;;;;20.29;93.19;100148.22;6224512;28;20054;-72
2023/07/14 04:58:15;;;;;;;1.60;1.50;;;;;;;20.27;93.65;100144.09;6223829;28;20378;-72
2023/07/14 05:01:17;;;;;;;3.05;1.98;;;;;;;20.25;94.27;100144.22;6223005;28;20046;-71
2023/07/14 05:04:20;;;;;;;3.43;1.67;;;;;;;20.20;93.57;100143.88;6208844;28;20103;-71
2023/07/14 05:07:20;;;;;;;3.15;2.00;;;;;;;20.35;92.38;100148.63;6220764;28;20052;-72
2023/07/14 05:10:25;;;;;;;2.23;1.67;;;;;;;20.48;91.86;100151.69;6223761;28;20052;-71
2023/07/14 05:13:25;;;;;;;1.95;1.75;;;;;;;20.47;91.27;100161.47;6217612;28;20511;-71
2023/07/14 05:16:26;;;;;;;2.53;1.90;;;;;;;20.67;91.45;100163.91;6218455;28;20054;-72
2023/07/14 05:19:28;;;;;;;2.80;2.10;;;;;;;20.65;89.92;100166.75;6223872;28;20049;-72
2023/07/14 05:22:28;;;;;;;1.95;1.75;;;;;;;20.62;88.88;100159.09;6222824;28;20049;-72
2023/07/14 05:25:29;;;;;;;2.80;2.00;;;;;;;20.83;89.12;100156.06;6217988;28;20053;-72
2023/07/14 05:28:30;;;;;;;5.40;1.87;;;;;;;20.90;87.61;100165.06;6219492;28;20421;-73
2023/07/14 05:31:34;;;;;;;3.40;2.03;;;;;;;20.97;87.11;100175.88;6221300;28;20103;-71
2023/07/14 05:34:35;;;;;;;2.67;1.98;;;;;;;21.10;88.11;100170.13;6222801;28;20058;-71
2023/07/14 05:37:36;;;;;;;2.27;1.43;;;;;;;21.22;85.60;100176.81;6222896;28;20153;-72
2023/07/14 05:40:37;;;;;;;2.57;2.13;;;;;;;21.27;83.95;100182.47;6223126;28;20387;-72
2023/07/14 05:43:40;;;;;;;3.50;1.98;;;;;;;21.25;83.79;100178.31;6222214;28;20053;-70
2023/07/14 05:46:42;;;;;;;2.05;1.80;;;;;;;21.34;83.33;100180.00;6224170;28;20501;-70
2023/07/14 05:49:42;;;;;;;2.43;1.83;;;;;;;21.43;84.18;100179.06;6222574;28;20085;-71
2023/07/14 05:52:45;;;;;;;2.37;2.00;;;;;;;21.37;81.86;100177.03;6223736;28;20054;-72
2023/07/14 05:55:46;;;;;;;5.40;2.15;;;;;;;21.43;81.53;100173.75;6223562;28;20046;-71
2023/07/14 05:58:47;;;;;;;2.85;1.90;;;;;;;21.60;80.96;100189.72;6223136;28;20414;-72
2023/07/14 06:01:48;;;;;;;2.27;2.07;;;;;;;21.74;80.94;100186.44;6223573;28;20050;-71
2023/07/14 06:04:49;;;;;;;2.47;1.92;;;;;;;21.69;81.47;100191.44;6222454;28;20062;-71
2023/07/14 06:07:50;;;;;;;2.93;2.13;;;;;;;21.90;80.38;100186.47;6222059;28;20050;-71
2023/07/14 06:10:51;;;;;;;4.47;2.03;;;;;;;22.19;78.59;100192.31;6222365;28;20140;-71
2023/07/14 06:13:54;;;;;;;3.33;1.92;;;;;;;22.24;77.51;100196.19;6221966;28;20414;-72
2023/07/14 06:16:56;;;;;;;3.17;2.30;;;;;;;22.51;78.17;100196.84;6223678;28;20050;-72
2023/07/14 06:19:59;;;;;;;3.00;2.05;;;;;;;22.53;75.54;100203.66;6222190;28;20072;-70
2023/07/14 06:23:00;;;;;;;2.97;2.00;;;;;;;22.51;77.00;100202.16;6223086;28;20057;-72
2023/07/14 06:26:01;;;;;;;3.27;2.20;;;;;;;22.41;77.26;100194.34;6223254;28;20120;-72
2023/07/14 06:29:04;;;;;;;2.90;2.27;;;;;;;22.58;76.01;100197.00;6220435;28;20057;-72
2023/07/14 06:32:05;;;;;;;1.85;1.60;;;;;;;22.78;74.85;100197.47;6223080;28;20092;-73
2023/07/14 06:35:06;;;;;;;3.97;2.53;;;;;;;22.82;74.93;100204.94;6223042;28;20060;-71
2023/07/14 06:38:08;;;;;;;2.83;2.00;;;;;;;22.71;73.75;100205.28;6222051;28;20056;-71
2023/07/14 06:41:09;;;;;;;3.00;2.00;;;;;;;23.04;74.84;100202.56;6221507;28;20544;-72
2023/07/14 06:44:10;;;;;;;2.72;2.00;;;;;;;23.04;72.47;100210.56;6222987;28;20049;-71
2023/07/14 06:47:14;;;;;;;3.13;2.17;;;;;;;23.02;72.11;100212.56;6222863;28;20061;-73
2023/07/14 06:50:15;;;;;;;4.05;2.55;;;;;;;23.12;72.01;100211.38;6215988;28;20108;-73
2023/07/14 06:53:15;;;;;;;2.73;2.00;;;;;;;23.50;73.27;100213.38;6212791;28;20053;-72
2023/07/14 06:56:16;;;;;;;2.47;1.87;;;;;;;23.73;69.75;100222.25;6221095;28;20060;-71
2023/07/14 06:59:17;;;;;;;1.93;1.57;;;;;;;23.91;70.12;100216.69;6220662;28;20058;-72
2023/07/14 07:02:18;;;;;;;2.63;2.00;;;;;;;23.92;69.55;100220.16;6222385;28;20283;-72
2023/07/14 07:05:19;;;;;;;5.23;1.87;;;;;;;24.17;68.44;100223.47;6222400;28;20046;-71
2023/07/14 07:08:19;;;;;;;2.07;1.50;;;;;;;24.30;67.27;100233.56;6221302;28;20049;-72
2023/07/14 07:11:20;;;;;;;3.87;1.93;;;;;;;24.33;66.63;100233.19;6222337;28;20057;-72
2023/07/14 07:14:21;;;;;;;2.40;1.90;;;;;;;24.34;66.77;100230.38;6222225;28;20137;-71
2023/07/14 07:17:22;;;;;;;3.40;1.90;;;;;;;24.57;65.48;100231.38;6221267;28;20060;-71
2023/07/14 07:20:22;;;;;;;3.00;1.80;;;;;;;24.62;64.84;100234.31;6221080;28;20046;-71
2023/07/14 07:23:24;;;;;;;1.60;1.50;;;;;;;24.71;65.23;100235.91;6220595;28;20518;-71
2023/07/14 07:26:24;;;;;;;2.60;1.80;;;;;;;24.90;62.36;100238.03;6220861;28;20050;-71
2023/07/14 07:29:25;;;;;;;2.63;1.83;;;;;;;24.88;64.38;100233.91;6220843;28;20052;-73
2023/07/14 07:32:26;;;;;;;2.53;1.60;;;;;;;25.10;62.20;100238.34;6222118;28;20050;-73
2023/07/14 07:35:28;;;;;;;1.88;1.65;;;;;;;25.53;62.25;100235.84;6220872;28;20050;-72
2023/07/14 07:38:28;;;;;;;2.17;1.60;;;;;;;25.48;63.85;100237.44;6220937;28;20077;-73
2023/07/14 07:41:29;;;;;;;2.90;1.77;;;;;;;25.64;62.52;100245.22;6226489;28;20486;-72
2023/07/14 07:44:34;;;;;;;1.67;1.52;;;;;;;25.71;60.87;100247.97;6226749;28;20445;-73
2023/07/14 07:47:37;;;;;;;1.90;1.67;;;;;;;25.89;61.11;100242.22;6226694;28;20057;-72
2023/07/14 07:50:37;;;;;;;2.95;1.60;;;;;;;26.22;60.38;100245.25;6225341;28;20101;-72
2023/07/14 07:53:39;;;;;;;2.63;1.70;;;;;;;26.33;58.26;100246.59;6215208;28;20050;-72
2023/07/14 07:56:42;;;;;;;2.53;1.85;;;;;;;26.35;60.33;100244.53;6215122;28;20049;-72
2023/07/14 07:59:43;;;;;;;5.88;1.90;;;;;;;25.98;59.36;100248.31;6206348;28;20054;-73
2023/07/14 08:02:44;;;;;;;3.43;1.70;;;;;;;26.53;62.96;100247.59;6223602;28;20073;-73
2023/07/14 08:05:45;;;;;;;1.93;1.70;;;;;;;26.59;57.31;100253.22;6221001;28;20318;-73
2023/07/14 08:08:45;;;;;;;1.33;1.23;;;;;;;26.96;55.56;100249.38;6207581;28;20042;-71
2023/07/14 08:11:47;;;;;;;3.40;1.67;;;;;;;27.03;54.86;100258.25;6212006;28;20100;-71
2023/07/14 08:14:56;;;;;;;1.85;1.48;;;;;;;26.94;54.82;100252.25;6208535;28;20505;-72
2023/07/14 08:17:57;;;;;;;2.42;1.83;;;;;;;26.94;54.59;100244.22;6209753;28;20103;-72
2023/07/14 08:20:59;;;;;;;2.25;1.60;;;;;;;27.25;54.28;100251.03;6221898;28;20096;-72
2023/07/14 08:24:00;;;;;;;4.72;1.42;;;;;;;26.64;55.33;100251.59;6219202;28;20053;-72
2023/07/14 08:27:01;;;;;;;1.65;1.23;;;;;;;26.73;56.46;100255.81;6224327;28;20073;-72
2023/07/14 08:30:02;;;;;;;1.80;1.37;;;;;;;26.91;53.36;100262.50;6224520;28;20054;-73
2023/07/14 08:33:02;;;;;;;1.60;1.50;;;;;;;27.00;55.77;100260.53;6224431;28;20405;-73
2023/07/14 08:36:04;;;;;;;4.38;1.50;;;;;;;26.98;53.05;100260.72;6224429;28;20134;-72
2023/07/14 08:39:07;;;;;;;1.60;1.50;;;;;;;27.04;53.04;100262.63;6224599;28;20050;-73
2023/07/14 08:42:38;;;;;;;2.85;1.30;;;;;;;27.24;54.19;100260.09;6224929;28;20049;-72
2023/07/14 08:45:51;;;;;;;2.05;1.60;;;;;;;27.27;51.52;100253.50;6224256;28;20430;-73
2023/07/14 08:49:27;;;;;;;2.40;1.52;;;;;;;27.70;52.37;100248.75;6224257;28;20145;-72
2023/07/14 08:52:35;;;;;;;1.60;1.50;;;;;;;27.69;50.36;100252.44;6236017;28;20133;-73
2023/07/14 08:55:39;;;;;;;1.42;1.33;;;;;;;27.85;51.92;100243.22;6224259;28;20050;-73
2023/07/14 08:58:41;;;;;;;1.90;1.48;;;;;;;28.54;45.98;100252.03;6225048;28;20482;-71
2023/07/14 09:01:53;;;;;;;1.65;1.35;;;;;;;28.64;48.92;100256.97;6223470;28;20048;-71
2023/07/14 09:05:00;;;;;;;3.03;1.60;;;;;;;27.99;49.87;100254.00;6224983;28;20053;-73
2023/07/14 09:08:01;;;;;;;1.95;1.60;;;;;;;28.18;48.37;100257.75;6223691;28;20406;-73
2023/07/14 09:11:31;;;;;;;2.67;1.60;;;;;;;28.26;50.58;100262.94;6223615;28;20053;-71
2023/07/14 09:14:34;;;;;;;1.95;1.25;;;;;;;28.48;47.33;100260.91;6202426;28;20054;-72
2023/07/14 09:17:59;;;;;;;3.80;1.45;;;;;;;28.62;47.15;100261.72;6222533;28;20478;-72
2023/07/14 09:21:06;;;;;;;2.28;1.60;;;;;;;28.54;49.10;100257.41;6236963;28;20050;-72
2023/07/14 09:24:14;;;;;;;2.10;1.40;;;;;;;28.75;47.34;100258.22;6224274;28;20057;-74
2023/07/14 09:27:28;;;;;;;1.83;1.25;;;;;;;28.27;46.82;100259.19;6224795;28;20116;-71
2023/07/14 09:30:33;;;;;;;1.63;1.40;;;;;;;28.93;50.95;100269.13;6222919;28;20049;-71
2023/07/14 09:33:47;;;;;;;1.73;1.35;;;;;;;28.58;45.97;100264.03;6222986;28;20512;-72
2023/07/14 09:36:48;;;;;;;2.28;1.52;;;;;;;29.13;46.49;100261.06;6224056;28;20046;-73
2023/07/14 09:40:03;;;;;;;2.42;1.60;;;;;;;29.08;47.89;100258.19;6223100;28;20057;-72
2023/07/14 09:43:06;;;;;;;2.17;1.50;;;;;;;29.15;44.89;100252.81;6222867;28;20053;-74
2023/07/14 09:46:09;;;;;;;2.55;1.50;;;;;;;28.59;43.67;100254.91;6224271;28;20092;-73
2023/07/14 09:49:20;;;;;;;3.20;1.40;;;;;;;29.29;43.60;100257.94;6222856;28;20512;-73
2023/07/14 09:52:21;;;;;;;1.90;1.40;;;;;;;29.03;41.95;100253.41;6222704;28;20073;-73
2023/07/14 09:55:23;;;;;;;2.55;1.58;;;;;;;29.66;44.75;100235.88;6222609;28;20417;-72
2023/07/14 09:58:27;;;;;;;2.28;1.58;;;;;;;30.36;43.57;100235.06;6222446;28;20049;-72
2023/07/14 10:01:32;;;;;;;1.77;1.30;;;;;;;30.31;41.57;100230.31;6220849;28;20042;-74
2023/07/14 10:04:36;;;;;;;1.85;1.20;;;;;;;30.24;40.54;100218.78;6211181;28;20046;-71
2023/07/14 10:07:41;;;;;;;2.00;1.35;;;;;;;30.41;39.89;100229.84;6218614;28;20046;-71
2023/07/14 10:10:43;;;;;;;2.83;1.38;;;;;;;30.34;41.22;100224.53;6222121;28;20045;-72
2023/07/14 10:13:52;;;;;;;1.83;1.20;;;;;;;30.74;39.56;100218.75;6222143;28;20212;-72
2023/07/14 10:16:56;;;;;;;2.85;1.30;;;;;;;30.74;38.26;100213.38;6223478;28;20045;-74
2023/07/14 10:19:56;;;;;;;1.55;1.20;;;;;;;30.95;39.58;100217.56;6223216;28;20528;-72
2023/07/14 10:22:58;;;;;;;1.33;1.10;;;;;;;30.63;37.81;100216.81;6221994;28;20048;-72
2023/07/14 10:26:00;;;;;;;1.88;1.23;;;;;;;31.03;39.90;100221.81;6221628;28;20426;-72
2023/07/14 10:29:06;;;;;;;1.63;1.30;;;;;;;30.94;37.68;100215.91;6223016;28;20076;-72
2023/07/14 10:32:14;;;;;;;1.60;0.98;;;;;;;31.06;36.57;100213.31;6223091;28;20053;-73
2023/07/14 10:35:20;;;;;;;1.45;0.93;;;;;;;31.10;37.99;100223.41;6222186;28;20096;-74
2023/07/14 10:38:32;;;;;;;1.23;1.10;;;;;;;31.28;42.23;100219.88;6222981;28;20141;-74
2023/07/14 10:41:35;;;;;;;1.65;1.17;;;;;;;31.44;34.07;100221.19;6222589;28;20517;-74
2023/07/14 10:44:40;;;;;;;1.70;1.30;;;;;;;31.39;39.82;100222.88;6222880;28;20544;-71
2023/07/14 10:47:52;;;;;;;1.52;1.27;;;;;;;31.23;36.26;100211.63;6222513;28;20494;-72
2023/07/14 10:51:00;;;;;;;1.98;1.50;;;;;;;31.79;40.25;100216.94;6222898;28;20054;-74
2023/07/14 10:54:11;;;;;;;2.30;1.50;;;;;;;31.88;38.53;100213.72;6221427;28;20050;-72
2023/07/14 10:57:19;;;;;;;1.73;1.33;;;;;;;31.41;39.10;100220.75;6222399;28;20076;-72
2023/07/14 11:00:32;;;;;;;4.25;1.42;;;;;;;30.95;42.97;100217.56;6221046;28;20107;-72
2023/07/14 11:04:01;;;;;;;1.70;1.15;;;;;;;31.37;39.34;100224.97;6222236;28;20441;-72
2023/07/14 11:07:04;;;;;;;3.03;1.50;;;;;;;31.44;37.05;100223.88;6219356;28;20042;-74
2023/07/14 11:10:15;;;;;;;1.30;1.20;;;;;;;31.85;39.75;100211.44;6222377;28;20562;-74
2023/07/14 11:13:27;;;;;;;3.03;1.35;;;;;;;32.32;39.30;100210.78;6221282;28;20998;-72
2023/07/14 11:16:43;;;;;;;2.05;1.52;;;;;;;30.56;41.15;100210.66;6217318;28;20173;-72
2023/07/14 11:20:00;;;;;;;1.40;1.30;;;;;;;30.56;41.85;100208.81;6203419;28;20088;-71
2023/07/14 11:23:27;;;;;;;1.30;1.20;;;;;;;30.85;38.35;100201.88;6222089;28;20411;-72
2023/07/14 11:26:38;;;;;;;2.33;1.40;;;;;;;31.21;39.84;100205.66;6221086;28;20053;-73
2023/07/14 11:29:52;;;;;;;1.60;0.95;;;;;;;31.62;39.04;100206.00;6215402;28;20129;-74
2023/07/14 11:33:05;;;;;;;1.90;1.40;;;;;;;31.63;40.11;100197.69;6221279;28;20046;-72
2023/07/14 11:36:15;;;;;;;2.42;1.33;;;;;;;31.11;39.35;100206.19;6215195;28;20058;-72
2023/07/14 11:39:49;;;;;;;2.25;1.45;;;;;;;31.61;40.47;100197.09;6206527;28;20100;-74
2023/07/14 11:43:02;;;;;;;2.35;1.20;;;;;;;31.89;37.12;100212.63;6208546;28;20324;-73
2023/07/14 11:46:08;;;;;;;2.42;1.20;;;;;;;32.11;41.70;100210.28;6208498;28;20466;-74
2023/07/14 11:49:24;;;;;;;1.05;1.00;;;;;;;32.52;37.91;100210.44;6212466;28;20050;-72
2023/07/14 11:52:27;;;;;;;1.67;1.15;;;;;;;31.68;36.60;100205.91;6210057;28;20623;-71
2023/07/14 11:55:30;;;;;;;1.65;1.20;;;;;;;31.08;38.45;100206.63;6221693;28;20419;-72
2023/07/14 11:58:31;;;;;;;2.33;1.52;;;;;;;30.68;38.24;100198.97;6220738;28;20462;-73
2023/07/14 12:01:42;;;;;;;;;;;;;;;31.69;39.49;100202.16;6222246;28;20064;-74
2023/07/14 12:04:58;;;;;;;6.53;1.07;;;;;;;32.19;38.05;100202.91;6220574;28;19944;-73
2023/07/14 12:08:02;;;;;;;1.38;1.02;;;;;;;31.82;32.44;100200.31;6211943;28;20185;-74
2023/07/14 12:11:04;;;;;;;1.70;1.10;;;;;;;31.46;33.35;100196.66;6197401;28;20046;-74
2023/07/14 12:14:45;;;;;;;1.35;1.00;;;;;;;31.23;32.12;100200.03;6197588;28;20054;-71
2023/07/14 12:17:48;;;;;;;;;;;;;;;31.41;35.27;100201.91;6180907;28;20510;-72
2023/07/14 12:20:50;;;;;;;1.80;1.00;;;;;;;31.42;32.96;100198.97;6202270;28;19929;-74
2023/07/14 12:24:01;;;;;;;1.27;1.05;;;;;;;31.79;35.47;100188.09;6221072;28;20121;-72
2023/07/14 12:27:02;;;;;;;2.72;1.30;;;;;;;31.80;34.88;100194.34;6222643;28;20081;-72
2023/07/14 12:30:15;;;;;;;;;;;;;;;32.11;35.27;100196.78;6223725;28;20056;-74
2023/07/14 12:33:19;;;;;;;1.10;0.98;;;;;;;31.98;33.70;100196.97;6210043;28;20020;-72
2023/07/14 12:36:21;;;;;;;1.88;1.02;;;;;;;32.10;38.08;100184.34;6216902;28;20133;-74
2023/07/14 12:39:23;;;;;;;1.40;1.15;;;;;;;31.89;36.86;100187.53;6224472;28;20045;-74
2023/07/14 12:42:24;;;;;;;1.73;1.40;;;;;;;31.38;36.89;100184.31;6223372;28;20461;-72
2023/07/14 12:45:24;;;;;;;;;;;;;;;31.83;38.87;100183.06;6225707;28;20097;-72
2023/07/14 12:48:35;;;;;;;3.30;1.40;;;;;;;31.83;38.95;100174.97;6224064;28;20381;-71
2023/07/14 12:51:38;;;;;;;2.42;1.27;;;;;;;31.35;35.95;100176.66;6224163;28;20116;-73
2023/07/14 12:54:44;;;;;;;1.58;1.15;;;;;;;31.81;37.12;100177.91;6225274;28;20180;-73
2023/07/14 12:57:48;;;;;;;2.33;1.25;;;;;;;31.96;37.07;100171.25;6223957;28;20465;-73
2023/07/14 13:00:54;;;;;;;1.67;1.30;;;;;;;31.75;36.40;100165.34;6223987;28;20089;-73
2023/07/14 13:03:55;;;;;;;2.33;1.30;;;;;;;31.41;35.95;100159.56;6225483;28;20141;-73
2023/07/14 13:07:06;;;;;;;;;;;;;;;32.05;37.95;100159.91;6225895;28;20056;-73
2023/07/14 13:10:17;;;;;;;1.77;1.42;;;;;;;31.91;35.43;100161.16;6225300;28;19921;-73
2023/07/14 13:13:20;;;;;;;;;;;;;;;31.90;37.95;100165.75;6224192;28;20100;-72
2023/07/14 13:16:34;;;;;;;2.55;1.10;;;;;;;31.68;35.54;100160.03;6224683;28;19975;-72
2023/07/14 13:19:41;;;;;;;1.00;0.90;;;;;;;31.57;36.10;100150.06;6223503;28;20064;-74
2023/07/14 13:22:42;;;;;;;1.98;1.30;;;;;;;31.65;37.32;100154.28;6223424;28;20050;-72
2023/07/14 13:26:03;;;;;;;;;;;;;;;31.52;37.13;100142.63;6223901;28;20054;-73
2023/07/14 13:29:14;;;;;;;3.47;1.27;;;;;;;31.41;32.58;100145.28;6220512;28;19921;-71
2023/07/14 13:32:14;;;;;;;;;;;;;;;31.47;32.55;100152.50;6224662;28;20093;-72
2023/07/14 13:35:22;;;;;;;3.70;1.10;;;;;;;31.24;33.07;100140.53;6222917;28;19976;-71
2023/07/14 13:38:25;;;;;;;1.10;1.00;;;;;;;31.29;35.93;100145.22;6222232;28;20449;-71
2023/07/14 13:41:28;;;;;;;2.03;1.10;;;;;;;31.29;34.02;100143.34;6223440;28;20042;-73
2023/07/14 13:44:35;;;;;;;1.20;1.05;;;;;;;31.38;35.60;100143.03;6223069;28;20052;-72
2023/07/14 13:47:45;;;;;;;1.20;1.02;;;;;;;31.29;35.81;100137.97;6223876;28;20065;-72
2023/07/14 13:50:46;;;;;;;1.40;1.10;;;;;;;31.60;34.55;100136.09;6222334;28;20103;-72
2023/07/14 13:53:47;;;;;;;;;;;;;;;31.33;38.27;100125.66;6223281;28;20049;-74
2023/07/14 13:56:48;;;;;;;1.30;1.20;;;;;;;31.26;36.01;100132.22;6225216;28;20365;-74
2023/07/14 13:59:48;;;;;;;;;;;;;;;31.05;36.53;100131.66;6222301;28;20060;-73
2023/07/14 14:02:52;;;;;;;2.67;1.20;;;;;;;30.91;37.37;100133.69;6215940;28;19921;-73
2023/07/14 14:05:53;;;;;;;1.83;1.10;;;;;;;31.21;38.81;100132.06;6222720;28;20088;-74
2023/07/14 14:08:54;;;;;;;1.75;1.30;;;;;;;30.40;36.52;100131.31;6223437;28;20410;-72
2023/07/14 14:11:55;;;;;;;;;;;;;;;30.90;39.35;100133.91;6219173;28;20433;-74
2023/07/14 14:14:55;;;;;;;2.13;1.30;;;;;;;30.55;37.91;100125.56;6209551;28;19925;-74
2023/07/14 14:18:07;;;;;;;;;;;;;;;31.11;40.32;100124.50;6231075;28;20153;-74
2023/07/14 14:21:08;;;;;;;2.17;1.35;;;;;;;31.30;39.70;100131.53;6198259;28;19925;-74
2023/07/14 14:24:09;;;;;;;;;;;;;;;31.10;39.51;100122.88;6198313;28;20597;-74
2023/07/14 14:27:09;;;;;;;2.13;1.30;;;;;;;30.98;37.47;100128.22;6221029;28;19921;-72